Time;durP1;ratioP1;P1;durP2;ratioP2;P2;SDS_P1;SDS_P2;PMS_P1;PMS_P2;Temp;Humidity;BMP_temperature;BMP_pressure;BME280_temperature;BME280_humidity;BME280_pressure;Samples;Min_cycle;Max_cycle;Signal;HPM_P1;HPM_P2
2023/01/08 00:00:07;;;;;;;;;;;;;;;;;;1055832;28;4105;-62
2023/01/08 00:00:37;;;;;;;;;;;;;;;;;;1055685;28;1814;-63
2023/01/08 00:01:27;;;;;;;;;;;;;;;;;;1046513;28;4112;-62
2023/01/08 00:01:57;;;;;;;;;;;;;;;;;;1048357;28;3971;-62
2023/01/08 00:02:28;;;;;;;;;;;;;;;;;;1047630;28;1692;-64
2023/01/08 00:02:58;;;;;;;;;;;;;;;;;;1050161;28;4099;-62
2023/01/08 00:03:28;;;;;;;;;;;;;;;;;;1054669;28;3040;-63
2023/01/08 00:03:58;;;;;;;;;;;;;;;;;;1053029;28;3961;-63
2023/01/08 00:04:29;;;;;;;;;;;;;;;;;;1051930;28;2117;-64
2023/01/08 00:04:59;;;;;;;;;;;;;;;;;;1051386;28;4151;-61
2023/01/08 00:05:29;;;;;;;;;;;;;;;;;;1054336;28;2743;-62
2023/01/08 00:06:01;;;;;;;;;;;;;;;;;;1055002;28;3945;-64
2023/01/08 00:06:31;;;;;;;;;;;;;;;;;;1055836;28;1679;-63
2023/01/08 00:07:01;;;;;;;;;;;;;;;;;;1055015;28;3973;-63
2023/01/08 00:07:31;;;;;;;;;;;;;;;;;;1056223;28;1392;-62
2023/01/08 00:08:02;;;;;;;;;;;;;;;;;;1055180;28;4198;-63
2023/01/08 00:08:32;;;;;;;;;;;;;;;;;;1056197;28;1735;-62
2023/01/08 00:09:02;;;;;;;;;;;;;;;;;;1055081;28;4398;-64
2023/01/08 00:09:33;;;;;;;;;;;;;;;;;;1056129;28;1742;-62
2023/01/08 00:10:03;;;;;;;;;;;;;;;;;;1055252;28;3988;-63
2023/01/08 00:10:34;;;;;;;;;;;;;;;;;;1056326;28;2067;-62
2023/01/08 00:11:04;;;;;;;;;;;;;;;;;;1054594;28;3790;-62
2023/01/08 00:11:35;;;;;;;;;;;;;;;;;;1051972;28;1909;-62
2023/01/08 00:12:05;;;;;;;;;;;;;;;;;;1050888;28;3772;-62
2023/01/08 00:12:35;;;;;;;;;;;;;;;;;;1053581;28;1974;-63
2023/01/08 00:13:06;;;;;;;;;;;;;;;;;;1051732;28;4026;-62
2023/01/08 00:13:36;;;;;;;;;;;;;;;;;;1052053;28;1722;-63
2023/01/08 00:14:06;;;;;;;;;;;;;;;;;;1051375;28;3765;-62
2023/01/08 00:14:37;;;;;;;;;;;;;;;;;;1051240;28;1743;-63
2023/01/08 00:15:07;;;;;;;;;;;;;;;;;;1053617;28;4375;-63
2023/01/08 00:15:37;;;;;;;;;;;;;;;;;;1053406;28;1701;-63
2023/01/08 00:16:12;;;;;;;;;;;;;;;;;;1051565;28;4123;-63
2023/01/08 00:16:43;;;;;;;;;;;;;;;;;;1054962;28;1586;-63
2023/01/08 00:17:13;;;;;;;;;;;;;;;;;;1052151;28;3930;-63
2023/01/08 00:17:43;;;;;;;;;;;;;;;;;;1055613;28;1667;-63
2023/01/08 00:18:13;;;;;;;;;;;;;;;;;;1055547;28;4036;-63
2023/01/08 00:18:44;;;;;;;;;;;;;;;;;;1054451;28;1861;-63
2023/01/08 00:19:14;;;;;;;;;;;;;;;;;;1052951;28;3876;-62
2023/01/08 00:19:45;;;;;;;;;;;;;;;;;;1051658;28;1721;-62
2023/01/08 00:20:15;;;;;;;;;;;;;;;;;;1051780;28;3907;-63
2023/01/08 00:20:45;;;;;;;;;;;;;;;;;;1051195;28;1634;-62
2023/01/08 00:21:16;;;;;;;;;;;;;;;;;;1051759;28;4020;-63
2023/01/08 00:21:46;;;;;;;;;;;;;;;;;;1053469;28;1790;-63
2023/01/08 00:22:16;;;;;;;;;;;;;;;;;;1055715;28;3769;-63
2023/01/08 00:22:50;;;;;;;;;;;;;;;;;;1055718;28;1733;-63
2023/01/08 00:23:21;;;;;;;;;;;;;;;;;;1055769;28;3954;-62
2023/01/08 00:23:52;;;;;;;;;;;;;;;;;;1055843;28;1657;-62
2023/01/08 00:24:22;;;;;;;;;;;;;;;;;;1055214;28;4333;-62
2023/01/08 00:24:52;;;;;;;;;;;;;;;;;;1054278;28;2902;-62
2023/01/08 00:25:22;;;;;;;;;;;;;;;;;;1049353;28;4029;-63
2023/01/08 00:25:53;;;;;;;;;;;;;;;;;;1046747;28;2249;-62
2023/01/08 00:26:23;;;;;;;;;;;;;;;;;;1047071;28;3967;-63
2023/01/08 00:26:54;;;;;;;;;;;;;;;;;;1046502;28;1501;-62
2023/01/08 00:27:24;;;;;;;;;;;;;;;;;;1046938;28;3726;-62
2023/01/08 00:27:54;;;;;;;;;;;;;;;;;;1045322;28;1983;-63
2023/01/08 00:28:25;;;;;;;;;;;;;;;;;;1047214;28;3750;-62
2023/01/08 00:28:55;;;;;;;;;;;;;;;;;;1048679;28;1742;-64
2023/01/08 00:29:25;;;;;;;;;;;;;;;;;;1048500;28;3969;-64
2023/01/08 00:29:55;;;;;;;;;;;;;;;;;;1054900;28;1748;-63
2023/01/08 00:30:26;;;;;;;;;;;;;;;;;;1055874;28;3960;-63
2023/01/08 00:30:56;;;;;;;;;;;;;;;;;;1055944;28;1776;-62
2023/01/08 00:31:26;;;;;;;;;;;;;;;;;;1053540;28;3854;-61
2023/01/08 00:31:57;;;;;;;;;;;;;;;;;;1054894;28;4411;-63
2023/01/08 00:32:27;;;;;;;;;;;;;;;;;;1054682;28;1720;-63
2023/01/08 00:32:57;;;;;;;;;;;;;;;;;;1051584;28;4111;-63
2023/01/08 00:33:27;;;;;;;;;;;;;;;;;;1049833;28;1767;-63
2023/01/08 00:33:58;;;;;;;;;;;;;;;;;;1050883;28;3955;-62
2023/01/08 00:34:28;;;;;;;;;;;;;;;;;;1051303;28;2045;-63
2023/01/08 00:35:00;;;;;;;;;;;;;;;;;;1049840;28;4076;-63
2023/01/08 00:35:30;;;;;;;;;;;;;;;;;;1055471;28;1856;-63
2023/01/08 00:36:05;;;;;;;;;;;;;;;;;;1051351;28;3773;-63
2023/01/08 00:36:49;;;;;;;;;;;;;;;;;;1054292;28;1674;-62
2023/01/08 00:37:27;;;;;;;;;;;;;;;;;;1053163;28;3686;-62
2023/01/08 00:37:57;;;;;;;;;;;;;;;;;;1055796;28;4780;-64
2023/01/08 00:38:28;;;;;;;;;;;;;;;;;;1051547;28;1683;-63
2023/01/08 00:38:59;;;;;;;;;;;;;;;;;;1050292;28;3972;-63
2023/01/08 00:39:29;;;;;;;;;;;;;;;;;;1051559;28;1642;-63
2023/01/08 00:39:59;;;;;;;;;;;;;;;;;;1046907;28;3858;-63
2023/01/08 00:40:30;;;;;;;;;;;;;;;;;;1052110;28;1734;-63
2023/01/08 00:41:00;;;;;;;;;;;;;;;;;;1051204;28;4060;-63
2023/01/08 00:41:30;;;;;;;;;;;;;;;;;;1051617;28;1697;-62
2023/01/08 00:42:00;;;;;;;;;;;;;;;;;;1053760;28;4241;-61
2023/01/08 00:42:31;;;;;;;;;;;;;;;;;;1055824;28;1377;-63
2023/01/08 00:43:01;;;;;;;;;;;;;;;;;;1054811;28;3956;-63
2023/01/08 00:43:31;;;;;;;;;;;;;;;;;;1056074;28;1700;-63
2023/01/08 00:44:02;;;;;;;;;;;;;;;;;;1053758;28;3915;-63
2023/01/08 00:44:32;;;;;;;;;;;;;;;;;;1055738;28;1576;-62
2023/01/08 00:45:02;;;;;;;;;;;;;;;;;;1053450;28;3975;-62
2023/01/08 00:45:33;;;;;;;;;;;;;;;;;;1053443;28;1705;-63
2023/01/08 00:46:03;;;;;;;;;;;;;;;;;;1051092;28;4069;-62
2023/01/08 00:46:33;;;;;;;;;;;;;;;;;;1052079;28;1687;-62
2023/01/08 00:47:04;;;;;;;;;;;;;;;;;;1050847;28;4511;-63
2023/01/08 00:47:34;;;;;;;;;;;;;;;;;;1051903;28;1691;-63
2023/01/08 00:48:05;;;;;;;;;;;;;;;;;;1051095;28;3969;-62
2023/01/08 00:48:38;;;;;;;;;;;;;;;;;;1051546;28;2061;-62
2023/01/08 00:49:08;;;;;;;;;;;;;;;;;;1051873;28;4034;-62
2023/01/08 00:49:38;;;;;;;;;;;;;;;;;;1049136;28;3018;-63
2023/01/08 00:50:09;;;;;;;;;;;;;;;;;;1046525;28;4692;-62
2023/01/08 00:50:47;;;;;;;;;;;;;;;;;;1049009;28;2648;-63
2023/01/08 00:51:17;;;;;;;;;;;;;;;;;;1050311;28;4037;-63
2023/01/08 00:51:47;;;;;;;;;;;;;;;;;;1055329;28;1973;-62
2023/01/08 00:52:17;;;;;;;;;;;;;;;;;;1055443;28;3822;-63
2023/01/08 00:52:48;;;;;;;;;;;;;;;;;;1053821;28;1752;-63
2023/01/08 00:53:19;;;;;;;;;;;;;;;;;;1051089;28;4079;-63
2023/01/08 00:53:49;;;;;;;;;;;;;;;;;;1046994;28;1637;-64
2023/01/08 00:54:19;;;;;;;;;;;;;;;;;;1046562;28;3772;-63
2023/01/08 00:54:50;;;;;;;;;;;;;;;;;;1046828;28;2597;-63
2023/01/08 00:55:20;;;;;;;;;;;;;;;;;;1049353;28;4021;-63
2023/01/08 00:55:58;;;;;;;;;;;;;;;;;;1051249;28;1769;-63
2023/01/08 00:56:28;;;;;;;;;;;;;;;;;;1046845;28;4388;-63
2023/01/08 00:56:58;;;;;;;;;;;;;;;;;;1046371;28;4293;-63
2023/01/08 00:57:32;;;;;;;;;;;;;;;;;;1048951;28;2985;-63
2023/01/08 00:58:02;;;;;;;;;;;;;;;;;;1048351;28;4038;-62
2023/01/08 00:58:33;;;;;;;;;;;;;;;;;;1051978;28;1740;-62
2023/01/08 00:59:03;;;;;;;;;;;;;;;;;;1050812;28;4486;-62
2023/01/08 00:59:33;;;;;;;;;;;;;;;;;;1051920;28;2023;-63
2023/01/08 01:00:04;;;;;;;;;;;;;;;;;;1046256;28;3809;-63
2023/01/08 01:00:35;;;;;;;;;;;;;;;;;;1048625;28;2529;-64
2023/01/08 01:01:09;;;;;;;;;;;;;;;;;;1050538;28;3801;-63
2023/01/08 01:01:39;;;;;;;;;;;;;;;;;;1052449;28;1715;-62
2023/01/08 01:02:10;;;;;;;;;;;;;;;;;;1054880;28;4053;-62
2023/01/08 01:02:40;;;;;;;;;;;;;;;;;;1055675;28;1789;-62
2023/01/08 01:03:10;;;;;;;;;;;;;;;;;;1054785;28;4337;-63
2023/01/08 01:03:41;;;;;;;;;;;;;;;;;;1056219;28;1631;-62
2023/01/08 01:04:13;;;;;;;;;;;;;;;;;;1050402;28;3792;-63
2023/01/08 01:04:44;;;;;;;;;;;;;;;;;;1051432;28;1736;-63
2023/01/08 01:05:14;;;;;;;;;;;;;;;;;;1049439;28;4050;-62
2023/01/08 01:05:44;;;;;;;;;;;;;;;;;;1051576;28;2867;-62
2023/01/08 01:06:15;;;;;;;;;;;;;;;;;;1048225;28;3946;-63
2023/01/08 01:06:45;;;;;;;;;;;;;;;;;;1046964;28;1976;-62
2023/01/08 01:07:15;;;;;;;;;;;;;;;;;;1046946;28;4015;-62
2023/01/08 01:07:46;;;;;;;;;;;;;;;;;;1046793;28;1862;-64
2023/01/08 01:08:16;;;;;;;;;;;;;;;;;;1051139;28;4059;-63
2023/01/08 01:08:47;;;;;;;;;;;;;;;;;;1051353;28;1771;-64
2023/01/08 01:09:17;;;;;;;;;;;;;;;;;;1051095;28;3822;-63
2023/01/08 01:09:48;;;;;;;;;;;;;;;;;;1053431;28;2797;-62
2023/01/08 01:10:18;;;;;;;;;;;;;;;;;;1051350;28;4385;-63
2023/01/08 01:10:48;;;;;;;;;;;;;;;;;;1051273;28;1712;-63
2023/01/08 01:11:20;;;;;;;;;;;;;;;;;;1051429;28;4004;-63
2023/01/08 01:11:51;;;;;;;;;;;;;;;;;;1055472;28;2539;-63
2023/01/08 01:12:21;;;;;;;;;;;;;;;;;;1055324;28;3884;-63
2023/01/08 01:12:51;;;;;;;;;;;;;;;;;;1055387;28;2136;-63
2023/01/08 01:13:21;;;;;;;;;;;;;;;;;;1055413;28;4015;-63
2023/01/08 01:13:53;;;;;;;;;;;;;;;;;;1050725;28;2032;-62
2023/01/08 01:14:23;;;;;;;;;;;;;;;;;;1050410;28;4025;-63
2023/01/08 01:14:53;;;;;;;;;;;;;;;;;;1049764;28;2830;-63
2023/01/08 01:15:24;;;;;;;;;;;;;;;;;;1050428;28;4037;-63
2023/01/08 01:15:58;;;;;;;;;;;;;;;;;;1048073;28;1610;-63
2023/01/08 01:16:28;;;;;;;;;;;;;;;;;;1048713;28;3927;-63
2023/01/08 01:16:58;;;;;;;;;;;;;;;;;;1046731;28;3921;-63
2023/01/08 01:17:28;;;;;;;;;;;;;;;;;;1047106;28;2049;-62
2023/01/08 01:17:59;;;;;;;;;;;;;;;;;;1051473;28;3788;-63
2023/01/08 01:18:29;;;;;;;;;;;;;;;;;;1053154;28;1982;-62
2023/01/08 01:19:00;;;;;;;;;;;;;;;;;;1054335;28;3788;-63
2023/01/08 01:19:30;;;;;;;;;;;;;;;;;;1051640;28;1986;-62
2023/01/08 01:20:00;;;;;;;;;;;;;;;;;;1050964;28;3945;-62
2023/01/08 01:20:30;;;;;;;;;;;;;;;;;;1051476;28;1807;-63
2023/01/08 01:21:01;;;;;;;;;;;;;;;;;;1051382;28;4137;-63
2023/01/08 01:21:31;;;;;;;;;;;;;;;;;;1051124;28;1874;-63
2023/01/08 01:22:02;;;;;;;;;;;;;;;;;;1051003;28;3870;-63
2023/01/08 01:22:32;;;;;;;;;;;;;;;;;;1050808;28;2018;-61
2023/01/08 01:23:03;;;;;;;;;;;;;;;;;;1050867;28;4394;-63
2023/01/08 01:23:33;;;;;;;;;;;;;;;;;;1055154;28;1586;-63
2023/01/08 01:24:04;;;;;;;;;;;;;;;;;;1047031;28;3935;-63
2023/01/08 01:24:35;;;;;;;;;;;;;;;;;;1046211;28;2757;-62
2023/01/08 01:25:05;;;;;;;;;;;;;;;;;;1048575;28;3871;-63
2023/01/08 01:25:36;;;;;;;;;;;;;;;;;;1048164;28;1623;-62
2023/01/08 01:26:13;;;;;;;;;;;;;;;;;;1050846;28;3812;-63
2023/01/08 01:26:43;;;;;;;;;;;;;;;;;;1052154;28;1784;-62
2023/01/08 01:27:13;;;;;;;;;;;;;;;;;;1051304;28;3802;-63
2023/01/08 01:27:44;;;;;;;;;;;;;;;;;;1051911;28;1676;-63
2023/01/08 01:28:15;;;;;;;;;;;;;;;;;;1055144;28;4332;-62
2023/01/08 01:28:46;;;;;;;;;;;;;;;;;;1055147;28;3067;-63
2023/01/08 01:29:16;;;;;;;;;;;;;;;;;;1053748;28;3785;-62
2023/01/08 01:29:46;;;;;;;;;;;;;;;;;;1053403;28;2852;-62
2023/01/08 01:30:17;;;;;;;;;;;;;;;;;;1054642;28;4375;-63
2023/01/08 01:30:52;;;;;;;;;;;;;;;;;;1055500;28;2698;-63
2023/01/08 01:31:23;;;;;;;;;;;;;;;;;;1054304;28;4000;-62
2023/01/08 01:31:53;;;;;;;;;;;;;;;;;;1056180;28;1949;-62
2023/01/08 01:32:23;;;;;;;;;;;;;;;;;;1055268;28;4105;-63
2023/01/08 01:32:53;;;;;;;;;;;;;;;;;;1047341;28;1690;-63
2023/01/08 01:33:24;;;;;;;;;;;;;;;;;;1046364;28;3882;-63
2023/01/08 01:33:54;;;;;;;;;;;;;;;;;;1046917;28;1694;-62
2023/01/08 01:34:24;;;;;;;;;;;;;;;;;;1042283;28;3740;-62
2023/01/08 01:34:55;;;;;;;;;;;;;;;;;;1049173;28;3019;-62
2023/01/08 01:35:25;;;;;;;;;;;;;;;;;;1049879;28;3932;-63
2023/01/08 01:35:58;;;;;;;;;;;;;;;;;;1048479;28;2859;-62
2023/01/08 01:36:42;;;;;;;;;;;;;;;;;;1051675;28;3977;-62
2023/01/08 01:37:19;;;;;;;;;;;;;;;;;;1053264;28;3970;-62
2023/01/08 01:37:50;;;;;;;;;;;;;;;;;;1055962;28;1686;-63
2023/01/08 01:38:20;;;;;;;;;;;;;;;;;;1048085;28;3831;-62
2023/01/08 01:38:52;;;;;;;;;;;;;;;;;;1046985;28;1725;-62
2023/01/08 01:39:22;;;;;;;;;;;;;;;;;;1046468;28;4291;-63
2023/01/08 01:39:52;;;;;;;;;;;;;;;;;;1046987;28;1617;-62
2023/01/08 01:40:23;;;;;;;;;;;;;;;;;;1052461;28;4099;-62
2023/01/08 01:40:53;;;;;;;;;;;;;;;;;;1051471;28;1782;-64
2023/01/08 01:41:25;;;;;;;;;;;;;;;;;;1051349;28;3946;-63
2023/01/08 01:42:02;;;;;;;;;;;;;;;;;;1042970;28;4085;-63
2023/01/08 01:42:39;;;;;;;;;;;;;;;;;;1043239;28;1776;-62
2023/01/08 01:43:11;;;;;;;;;;;;;;;;;;1041773;28;3993;-62
2023/01/08 01:43:42;;;;;;;;;;;;;;;;;;1044521;28;1704;-63
2023/01/08 01:44:50;;;;;;;;;;;;;;;;;;1046502;28;4007;-63
2023/01/08 01:45:22;;;;;;;;;;;;;;;;;;1033465;28;4094;-62
2023/01/08 01:45:52;;;;;;;;;;;;;;;;;;1034708;28;1626;-62
2023/01/08 01:46:22;;;;;;;;;;;;;;;;;;1033527;28;3724;-62
2023/01/08 01:46:53;;;;;;;;;;;;;;;;;;1030654;28;1757;-63
2023/01/08 01:47:31;;;;;;;;;;;;;;;;;;1029463;28;3947;-64
2023/01/08 01:48:05;;;;;;;;;;;;;;;;;;1029836;28;3819;-63
2023/01/08 01:48:35;;;;;;;;;;;;;;;;;;1030302;28;1773;-64
2023/01/08 01:49:10;;;;;;;;;;;;;;;;;;1030096;28;3878;-64
2023/01/08 01:49:42;;;;;;;;;;;;;;;;;;1029692;28;1903;-62
2023/01/08 01:50:21;;;;;;;;;;;;;;;;;;1030265;28;4438;-63
2023/01/08 01:50:53;;;;;;;;;;;;;;;;;;1032946;28;2941;-62
2023/01/08 01:51:27;;;;;;;;;;;;;;;;;;1048669;28;4407;-62
2023/01/08 01:52:01;;;;;;;;;;;;;;;;;;1055369;28;3802;-63
2023/01/08 01:52:33;;;;;;;;;;;;;;;;;;1051311;28;1820;-63
2023/01/08 01:53:11;;;;;;;;;;;;;;;;;;1051160;28;3954;-62
2023/01/08 01:53:41;;;;;;;;;;;;;;;;;;1046507;28;1914;-62
2023/01/08 01:54:12;;;;;;;;;;;;;;;;;;1048701;28;4236;-62
2023/01/08 01:54:42;;;;;;;;;;;;;;;;;;1045920;28;3535;-64
2023/01/08 01:55:13;;;;;;;;;;;;;;;;;;1046738;28;3875;-63
2023/01/08 01:55:44;;;;;;;;;;;;;;;;;;1050986;28;2226;-63
2023/01/08 01:56:14;;;;;;;;;;;;;;;;;;1050812;28;3957;-63
2023/01/08 01:56:45;;;;;;;;;;;;;;;;;;1055490;28;1830;-63
2023/01/08 01:57:15;;;;;;;;;;;;;;;;;;1054832;28;4068;-62
2023/01/08 01:57:51;;;;;;;;;;;;;;;;;;1052568;28;1756;-63
2023/01/08 01:58:22;;;;;;;;;;;;;;;;;;1051021;28;3873;-64
2023/01/08 01:58:52;;;;;;;;;;;;;;;;;;1051038;28;2776;-62
2023/01/08 01:59:22;;;;;;;;;;;;;;;;;;1051200;28;3788;-62
2023/01/08 01:59:53;;;;;;;;;;;;;;;;;;1052308;28;1508;-62
2023/01/08 02:00:23;;;;;;;;;;;;;;;;;;1054828;28;3767;-63
2023/01/08 02:00:55;;;;;;;;;;;;;;;;;;1052498;28;1841;-63
2023/01/08 02:01:27;;;;;;;;;;;;;;;;;;1051401;28;3839;-63
2023/01/08 02:01:58;;;;;;;;;;;;;;;;;;1051127;28;1704;-64
2023/01/08 02:02:28;;;;;;;;;;;;;;;;;;1051282;28;4814;-64
2023/01/08 02:02:58;;;;;;;;;;;;;;;;;;1055816;28;3824;-63
2023/01/08 02:03:31;;;;;;;;;;;;;;;;;;1055590;28;1791;-63
2023/01/08 02:04:01;;;;;;;;;;;;;;;;;;1052794;28;4133;-64
2023/01/08 02:04:32;;;;;;;;;;;;;;;;;;1052075;28;2774;-62
2023/01/08 02:05:02;;;;;;;;;;;;;;;;;;1052799;28;4108;-62
2023/01/08 02:05:37;;;;;;;;;;;;;;;;;;1051370;28;1701;-63
2023/01/08 02:06:26;;;;;;;;;;;;;;;;;;1052252;28;4406;-63
2023/01/08 02:07:09;;;;;;;;;;;;;;;;;;1054333;28;1653;-63
2023/01/08 02:07:45;;;;;;;;;;;;;;;;;;1054432;28;3837;-62
2023/01/08 02:08:32;;;;;;;;;;;;;;;;;;1055302;28;4372;-63
2023/01/08 02:09:07;;;;;;;;;;;;;;;;;;1050432;28;3987;-64
2023/01/08 02:09:46;;;;;;;;;;;;;;;;;;1051076;28;1711;-64
2023/01/08 02:10:22;;;;;;;;;;;;;;;;;;1050801;28;4038;-63
2023/01/08 02:10:55;;;;;;;;;;;;;;;;;;1053646;28;1614;-63
2023/01/08 02:11:33;;;;;;;;;;;;;;;;;;1055419;28;3747;-63
2023/01/08 02:12:23;;;;;;;;;;;;;;;;;;1055451;28;3758;-63
2023/01/08 02:12:57;;;;;;;;;;;;;;;;;;1050618;28;2389;-63
2023/01/08 02:13:32;;;;;;;;;;;;;;;;;;1055326;28;3868;-63
2023/01/08 02:14:15;;;;;;;;;;;;;;;;;;1052084;28;3775;-63
2023/01/08 02:15:05;;;;;;;;;;;;;;;;;;1051319;28;1733;-62
2023/01/08 02:15:38;;;;;;;;;;;;;;;;;;1050968;28;3820;-63
2023/01/08 02:16:14;;;;;;;;;;;;;;;;;;1053429;28;3899;-62
2023/01/08 02:16:56;;;;;;;;;;;;;;;;;;1052020;28;1644;-62
2023/01/08 02:17:29;;;;;;;;;;;;;;;;;;1054032;28;3986;-62
2023/01/08 02:18:14;;;;;;;;;;;;;;;;;;1050672;28;4058;-63
2023/01/08 02:18:49;;;;;;;;;;;;;;;;;;1054865;28;1674;-64
2023/01/08 02:19:30;;;;;;;;;;;;;;;;;;1054986;28;3731;-63
2023/01/08 02:20:16;;;;;;;;;;;;;;;;;;1055620;28;3906;-64
2023/01/08 02:20:51;;;;;;;;;;;;;;;;;;1056014;28;1570;-63
2023/01/08 02:21:40;;;;;;;;;;;;;;;;;;1054518;28;4257;-63
2023/01/08 02:22:29;;;;;;;;;;;;;;;;;;1054696;28;3838;-63
2023/01/08 02:23:11;;;;;;;;;;;;;;;;;;1055111;28;3932;-62
2023/01/08 02:23:45;;;;;;;;;;;;;;;;;;1055019;28;1837;-62
2023/01/08 02:24:22;;;;;;;;;;;;;;;;;;1052485;28;4180;-62
2023/01/08 02:25:10;;;;;;;;;;;;;;;;;;1052579;28;2781;-63
2023/01/08 02:25:59;;;;;;;;;;;;;;;;;;1054038;28;4162;-63
2023/01/08 02:26:33;;;;;;;;;;;;;;;;;;1054896;28;3998;-63
2023/01/08 02:27:05;;;;;;;;;;;;;;;;;;1055143;28;4421;-62
2023/01/08 02:27:36;;;;;;;;;;;;;;;;;;1055430;28;1768;-63
2023/01/08 02:28:09;;;;;;;;;;;;;;;;;;1055145;28;3776;-63
2023/01/08 02:29:00;;;;;;;;;;;;;;;;;;1055377;28;1797;-62
2023/01/08 02:29:31;;;;;;;;;;;;;;;;;;1033045;28;3710;-62
2023/01/08 02:30:02;;;;;;;;;;;;;;;;;;1051234;28;4419;-62
2023/01/08 02:30:32;;;;;;;;;;;;;;;;;;1051942;28;2848;-63
2023/01/08 02:31:04;;;;;;;;;;;;;;;;;;1054409;28;3858;-62
2023/01/08 02:31:37;;;;;;;;;;;;;;;;;;1054155;28;1930;-62
2023/01/08 02:32:07;;;;;;;;;;;;;;;;;;1054514;28;3773;-63
2023/01/08 02:32:38;;;;;;;;;;;;;;;;;;1055955;28;1597;-63
2023/01/08 02:33:10;;;;;;;;;;;;;;;;;;1054741;28;4019;-64
2023/01/08 02:33:40;;;;;;;;;;;;;;;;;;1055508;28;1613;-62
2023/01/08 02:34:11;;;;;;;;;;;;;;;;;;1052765;28;3958;-63
2023/01/08 02:34:41;;;;;;;;;;;;;;;;;;1054865;28;1548;-62
2023/01/08 02:35:11;;;;;;;;;;;;;;;;;;1050690;28;4943;-64
2023/01/08 02:35:50;;;;;;;;;;;;;;;;;;1051723;28;1750;-63
2023/01/08 02:36:23;;;;;;;;;;;;;;;;;;1052573;28;4179;-62
2023/01/08 02:37:06;;;;;;;;;;;;;;;;;;1050313;28;1677;-62
2023/01/08 02:37:44;;;;;;;;;;;;;;;;;;1054321;28;3677;-62
2023/01/08 02:38:15;;;;;;;;;;;;;;;;;;1054328;28;3752;-63
2023/01/08 02:38:56;;;;;;;;;;;;;;;;;;1055820;28;1410;-62
2023/01/08 02:39:32;;;;;;;;;;;;;;;;;;1054774;28;3800;-63
2023/01/08 02:40:05;;;;;;;;;;;;;;;;;;1055284;28;3941;-63
2023/01/08 02:40:40;;;;;;;;;;;;;;;;;;1048442;28;2680;-62
2023/01/08 02:41:11;;;;;;;;;;;;;;;;;;1049161;28;3968;-62
2023/01/08 02:42:17;;;;;;;;;;;;;;;;;;1047898;28;1854;-63
2023/01/08 02:42:54;;;;;;;;;;;;;;;;;;1041519;28;3799;-63
2023/01/08 02:43:51;;;;;;;;;;;;;;;;;;1040186;28;3826;-62
2023/01/08 02:44:23;;;;;;;;;;;;;;;;;;1039910;28;3968;-63
2023/01/08 02:44:53;;;;;;;;;;;;;;;;;;1043589;28;1780;-63
2023/01/08 02:45:40;;;;;;;;;;;;;;;;;;1045677;28;3951;-62
2023/01/08 02:46:12;;;;;;;;;;;;;;;;;;1051737;28;4106;-63
2023/01/08 02:46:43;;;;;;;;;;;;;;;;;;1055575;28;1707;-62
2023/01/08 02:47:37;;;;;;;;;;;;;;;;;;1056101;28;4031;-62
2023/01/08 02:48:25;;;;;;;;;;;;;;;;;;1042197;28;3955;-62
2023/01/08 02:49:00;;;;;;;;;;;;;;;;;;1051786;28;1533;-63
2023/01/08 02:49:33;;;;;;;;;;;;;;;;;;1052076;28;4034;-63
2023/01/08 02:50:04;;;;;;;;;;;;;;;;;;1052158;28;4224;-63
2023/01/08 02:50:38;;;;;;;;;;;;;;;;;;1056383;28;2449;-63
2023/01/08 02:51:22;;;;;;;;;;;;;;;;;;1050149;28;4235;-63
2023/01/08 02:51:54;;;;;;;;;;;;;;;;;;1048512;28;1984;-63
2023/01/08 02:52:27;;;;;;;;;;;;;;;;;;1047310;28;4430;-62
2023/01/08 02:53:03;;;;;;;;;;;;;;;;;;1049913;28;4062;-63
2023/01/08 02:53:43;;;;;;;;;;;;;;;;;;1053280;28;1634;-63
2023/01/08 02:54:16;;;;;;;;;;;;;;;;;;1051230;28;3834;-63
2023/01/08 02:54:47;;;;;;;;;;;;;;;;;;1052171;28;1752;-62
2023/01/08 02:55:19;;;;;;;;;;;;;;;;;;1051548;28;3713;-63
2023/01/08 02:55:51;;;;;;;;;;;;;;;;;;1053346;28;2948;-63
2023/01/08 02:56:30;;;;;;;;;;;;;;;;;;1054037;28;3693;-63
2023/01/08 02:57:04;;;;;;;;;;;;;;;;;;1052803;28;3965;-63
2023/01/08 02:57:35;;;;;;;;;;;;;;;;;;1052267;28;1756;-62
2023/01/08 02:58:06;;;;;;;;;;;;;;;;;;1052035;28;4019;-63
2023/01/08 02:58:37;;;;;;;;;;;;;;;;;;1051725;28;2165;-64
2023/01/08 02:59:09;;;;;;;;;;;;;;;;;;1051584;28;4385;-63
2023/01/08 02:59:41;;;;;;;;;;;;;;;;;;1055081;28;1639;-64
2023/01/08 03:00:12;;;;;;;;;;;;;;;;;;1055831;28;4395;-61
2023/01/08 03:00:43;;;;;;;;;;;;;;;;;;1056009;28;2029;-63
2023/01/08 03:01:15;;;;;;;;;;;;;;;;;;1051220;28;4388;-61
2023/01/08 03:01:46;;;;;;;;;;;;;;;;;;1051309;28;1709;-64
2023/01/08 03:02:16;;;;;;;;;;;;;;;;;;1051675;28;3879;-63
2023/01/08 03:02:48;;;;;;;;;;;;;;;;;;1051727;28;2905;-63
2023/01/08 03:03:21;;;;;;;;;;;;;;;;;;1056082;28;4366;-62
2023/01/08 03:03:55;;;;;;;;;;;;;;;;;;1056144;28;1588;-62
2023/01/08 03:04:27;;;;;;;;;;;;;;;;;;1051958;28;3774;-63
2023/01/08 03:05:00;;;;;;;;;;;;;;;;;;1047298;28;2171;-62
2023/01/08 03:05:31;;;;;;;;;;;;;;;;;;1049305;28;3878;-63
2023/01/08 03:06:06;;;;;;;;;;;;;;;;;;1045022;28;4141;-62
2023/01/08 03:06:37;;;;;;;;;;;;;;;;;;1046511;28;2858;-63
2023/01/08 03:07:07;;;;;;;;;;;;;;;;;;1048715;28;4241;-62
2023/01/08 03:07:37;;;;;;;;;;;;;;;;;;1052828;28;1702;-63
2023/01/08 03:08:08;;;;;;;;;;;;;;;;;;1055643;28;3764;-62
2023/01/08 03:08:40;;;;;;;;;;;;;;;;;;1055000;28;2756;-63
2023/01/08 03:09:11;;;;;;;;;;;;;;;;;;1055199;28;3836;-63
2023/01/08 03:09:41;;;;;;;;;;;;;;;;;;1056454;28;1785;-64
2023/01/08 03:10:11;;;;;;;;;;;;;;;;;;1055578;28;4424;-63
2023/01/08 03:10:44;;;;;;;;;;;;;;;;;;1056452;28;1662;-63
2023/01/08 03:11:16;;;;;;;;;;;;;;;;;;1055049;28;3951;-62
2023/01/08 03:11:49;;;;;;;;;;;;;;;;;;1056460;28;1918;-63
2023/01/08 03:12:23;;;;;;;;;;;;;;;;;;1051802;28;4526;-63
2023/01/08 03:13:08;;;;;;;;;;;;;;;;;;1052618;28;1764;-62
2023/01/08 03:13:41;;;;;;;;;;;;;;;;;;1054533;28;3869;-63
2023/01/08 03:14:30;;;;;;;;;;;;;;;;;;1055763;28;3766;-62
2023/01/08 03:15:05;;;;;;;;;;;;;;;;;;1051652;28;3806;-62
2023/01/08 03:15:41;;;;;;;;;;;;;;;;;;1051625;28;1923;-62
2023/01/08 03:16:15;;;;;;;;;;;;;;;;;;1051952;28;4001;-63
2023/01/08 03:16:54;;;;;;;;;;;;;;;;;;1052810;28;2833;-62
2023/01/08 03:17:28;;;;;;;;;;;;;;;;;;1054386;28;3777;-63
2023/01/08 03:18:01;;;;;;;;;;;;;;;;;;1049758;28;4043;-63
2023/01/08 03:18:34;;;;;;;;;;;;;;;;;;1051129;28;1683;-62
2023/01/08 03:19:09;;;;;;;;;;;;;;;;;;1050876;28;3984;-63
2023/01/08 03:19:43;;;;;;;;;;;;;;;;;;1050678;28;1700;-63
2023/01/08 03:20:14;;;;;;;;;;;;;;;;;;1052836;28;3919;-62
2023/01/08 03:20:46;;;;;;;;;;;;;;;;;;1055614;28;3094;-62
2023/01/08 03:21:17;;;;;;;;;;;;;;;;;;1055784;28;4200;-62
2023/01/08 03:21:49;;;;;;;;;;;;;;;;;;1051271;28;1979;-63
2023/01/08 03:22:21;;;;;;;;;;;;;;;;;;1051004;28;4253;-63
2023/01/08 03:22:55;;;;;;;;;;;;;;;;;;1047305;28;1707;-63
2023/01/08 03:23:26;;;;;;;;;;;;;;;;;;1049961;28;3903;-63
2023/01/08 03:23:57;;;;;;;;;;;;;;;;;;1051461;28;2640;-63
2023/01/08 03:24:31;;;;;;;;;;;;;;;;;;1054709;28;4162;-62
2023/01/08 03:25:02;;;;;;;;;;;;;;;;;;1051194;28;4045;-62
2023/01/08 03:25:33;;;;;;;;;;;;;;;;;;1056542;28;2054;-64
2023/01/08 03:26:05;;;;;;;;;;;;;;;;;;1051264;28;4061;-63
2023/01/08 03:26:36;;;;;;;;;;;;;;;;;;1051752;28;2784;-63
2023/01/08 03:27:09;;;;;;;;;;;;;;;;;;1051393;28;3978;-62
2023/01/08 03:27:41;;;;;;;;;;;;;;;;;;1053557;28;1625;-64
2023/01/08 03:28:15;;;;;;;;;;;;;;;;;;1055379;28;3865;-62
2023/01/08 03:28:47;;;;;;;;;;;;;;;;;;1056379;28;1953;-63
2023/01/08 03:29:19;;;;;;;;;;;;;;;;;;1055577;28;3831;-63
2023/01/08 03:29:51;;;;;;;;;;;;;;;;;;1052450;28;2695;-62
2023/01/08 03:30:22;;;;;;;;;;;;;;;;;;1051162;28;4000;-64
2023/01/08 03:30:53;;;;;;;;;;;;;;;;;;1052273;28;2024;-62
2023/01/08 03:31:25;;;;;;;;;;;;;;;;;;1051341;28;3979;-63
2023/01/08 03:31:59;;;;;;;;;;;;;;;;;;1052233;28;1579;-62
2023/01/08 03:32:30;;;;;;;;;;;;;;;;;;1051401;28;3811;-63
2023/01/08 03:33:01;;;;;;;;;;;;;;;;;;1053506;28;4213;-62
2023/01/08 03:33:32;;;;;;;;;;;;;;;;;;1056124;28;1846;-64
2023/01/08 03:34:02;;;;;;;;;;;;;;;;;;1056093;28;4414;-62
2023/01/08 03:34:35;;;;;;;;;;;;;;;;;;1055912;28;2030;-63
2023/01/08 03:35:06;;;;;;;;;;;;;;;;;;1055886;28;3844;-62
2023/01/08 03:35:37;;;;;;;;;;;;;;;;;;1054024;28;1954;-63
2023/01/08 03:36:08;;;;;;;;;;;;;;;;;;1055962;28;4020;-62
2023/01/08 03:36:53;;;;;;;;;;;;;;;;;;1054346;28;2946;-63
2023/01/08 03:37:36;;;;;;;;;;;;;;;;;;1056389;28;3827;-62
2023/01/08 03:38:35;;;;;;;;;;;;;;;;;;1055279;28;3794;-63
2023/01/08 03:39:12;;;;;;;;;;;;;;;;;;1033952;28;3977;-63
2023/01/08 03:39:45;;;;;;;;;;;;;;;;;;1053497;28;2713;-62
2023/01/08 03:40:18;;;;;;;;;;;;;;;;;;1054636;28;3901;-64
2023/01/08 03:40:51;;;;;;;;;;;;;;;;;;1054921;28;3083;-63
2023/01/08 03:41:23;;;;;;;;;;;;;;;;;;1053414;28;3778;-62
2023/01/08 03:41:56;;;;;;;;;;;;;;;;;;1052739;28;2664;-62
2023/01/08 03:42:27;;;;;;;;;;;;;;;;;;1052329;28;3816;-63
2023/01/08 03:42:57;;;;;;;;;;;;;;;;;;1052373;28;1702;-62
2023/01/08 03:43:28;;;;;;;;;;;;;;;;;;1051569;28;3621;-62
2023/01/08 03:43:58;;;;;;;;;;;;;;;;;;1051656;28;3950;-62
2023/01/08 03:44:29;;;;;;;;;;;;;;;;;;1051956;28;1679;-62
2023/01/08 03:44:59;;;;;;;;;;;;;;;;;;1051744;28;4030;-63
2023/01/08 03:45:30;;;;;;;;;;;;;;;;;;1051521;28;1626;-62
2023/01/08 03:46:03;;;;;;;;;;;;;;;;;;1053470;28;4482;-63
2023/01/08 03:46:36;;;;;;;;;;;;;;;;;;1054962;28;2783;-62
2023/01/08 03:47:08;;;;;;;;;;;;;;;;;;1053855;28;3856;-63
2023/01/08 03:47:39;;;;;;;;;;;;;;;;;;1055210;28;2913;-62
2023/01/08 03:48:09;;;;;;;;;;;;;;;;;;1055811;28;3767;-62
2023/01/08 03:48:40;;;;;;;;;;;;;;;;;;1055287;28;1783;-63